createdAt,value
2022-11-29T00:01:06.709Z,22.83
2022-11-29T00:03:33.695Z,22.20
2022-11-29T00:08:38.160Z,22.17
2022-11-29T00:11:07.056Z,21.30
2022-11-29T00:13:34.164Z,21.30
2022-11-29T00:16:09.393Z,22.88
2022-11-29T00:18:36.805Z,21.75
2022-11-29T00:21:09.577Z,22.73
2022-11-29T00:23:36.573Z,24.35
2022-11-29T00:28:34.820Z,23.65
2022-11-29T00:31:01.521Z,23.80
2022-11-29T00:33:28.118Z,23.73
2022-11-29T00:35:54.621Z,24.90
2022-11-29T00:38:21.129Z,24.98
2022-11-29T00:40:51.832Z,24.15
2022-11-29T00:43:18.580Z,23.25
2022-11-29T00:45:45.131Z,23.02
2022-11-29T00:48:11.665Z,23.63
2022-11-29T00:50:38.181Z,23.95
2022-11-29T00:53:04.767Z,25.30
2022-11-29T00:55:31.241Z,24.42
2022-11-29T00:57:57.762Z,24.77
2022-11-29T01:00:24.661Z,27.80
2022-11-29T01:02:51.226Z,25.10
2022-11-29T01:05:17.849Z,25.67
2022-11-29T01:07:44.588Z,25.58
2022-11-29T01:10:11.242Z,26.42
2022-11-29T01:12:39.339Z,26.38
2022-11-29T01:15:07.444Z,27.55
2022-11-29T01:17:38.845Z,27.33
2022-11-29T01:20:08.186Z,27.40
2022-11-29T01:22:35.616Z,25.83
2022-11-29T01:25:02.192Z,26.80
2022-11-29T01:27:29.303Z,27.17
2022-11-29T01:29:55.832Z,27.42
2022-11-29T01:32:22.398Z,28.25
2022-11-29T01:34:48.946Z,25.95
2022-11-29T01:37:15.547Z,25.27
2022-11-29T01:39:42.261Z,28.70
2022-11-29T01:42:13.461Z,27.35
2022-11-29T01:44:40.001Z,26.88
2022-11-29T01:47:06.557Z,28.08
2022-11-29T01:49:37.868Z,27.98
2022-11-29T01:52:13.213Z,27.67
2022-11-29T01:54:43.778Z,26.42
2022-11-29T01:57:11.456Z,26.17
2022-11-29T01:59:43.315Z,27.40
2022-11-29T02:02:16.884Z,26.27
2022-11-29T02:04:46.352Z,27.02
2022-11-29T02:07:13.137Z,27.10
2022-11-29T02:09:39.703Z,27.52
2022-11-29T02:12:33.090Z,28.08
2022-11-29T02:15:13.556Z,25.38
2022-11-29T02:17:43.047Z,27.20
2022-11-29T02:20:27.701Z,25.38
2022-11-29T02:23:03.645Z,27.33
2022-11-29T02:25:42.365Z,25.50
2022-11-29T02:28:34.331Z,26.63
2022-11-29T02:31:37.999Z,27.00
2022-11-29T02:34:07.615Z,26.63
2022-11-29T02:37:11.811Z,26.98
2022-11-29T02:40:20.551Z,26.50
2022-11-29T02:43:22.273Z,27.60
2022-11-29T02:46:27.112Z,27.05
2022-11-29T02:49:07.752Z,25.67
2022-11-29T02:51:42.948Z,26.38
2022-11-29T02:54:25.943Z,26.02
2022-11-29T02:57:04.559Z,26.85
2022-11-29T02:59:40.353Z,27.05
2022-11-29T03:02:19.955Z,27.55
2022-11-29T03:05:01.502Z,29.33
2022-11-29T03:07:41.398Z,27.30
2022-11-29T03:10:23.242Z,27.23
2022-11-29T03:12:53.649Z,27.25
2022-11-29T03:15:31.599Z,26.33
2022-11-29T03:18:14.928Z,26.83
2022-11-29T03:20:50.282Z,27.52
2022-11-29T03:23:22.807Z,27.85
2022-11-29T03:25:56.338Z,27.48
2022-11-29T03:28:35.220Z,27.77
2022-11-29T03:31:07.330Z,27.25
2022-11-29T03:34:02.602Z,27.15
2022-11-29T03:36:53.437Z,27.48
2022-11-29T03:39:44.701Z,28.40
2022-11-29T03:42:16.400Z,26.67
2022-11-29T03:44:59.391Z,26.92
2022-11-29T03:47:36.130Z,26.77
2022-11-29T03:50:13.577Z,26.88
2022-11-29T03:52:48.013Z,28.77
2022-11-29T03:55:33.203Z,28.23
2022-11-29T03:58:17.519Z,27.23
2022-11-29T04:00:49.842Z,25.65
2022-11-29T04:03:28.516Z,26.40
2022-11-29T04:06:19.069Z,27.55
2022-11-29T04:09:00.676Z,26.63
2022-11-29T04:12:08.638Z,27.05
2022-11-29T04:15:01.323Z,26.38
2022-11-29T04:17:46.292Z,25.38
2022-11-29T04:20:39.737Z,26.02
2022-11-29T04:23:14.588Z,25.27
2022-11-29T04:26:23.046Z,27.27
2022-11-29T04:28:55.466Z,25.50
2022-11-29T04:31:47.729Z,25.70
2022-11-29T04:34:32.900Z,26.35
2022-11-29T04:37:30.336Z,26.60
2022-11-29T04:40:12.594Z,26.25
2022-11-29T04:43:01.383Z,26.00
2022-11-29T04:45:43.049Z,25.88
2022-11-29T04:48:15.319Z,26.27
2022-11-29T04:50:41.749Z,26.30
2022-11-29T04:53:17.342Z,27.85
2022-11-29T04:55:49.843Z,27.77
2022-11-29T05:01:50.490Z,26.08
2022-11-29T05:04:23.621Z,26.13
2022-11-29T05:07:03.178Z,27.00
2022-11-29T05:09:37.214Z,26.15
2022-11-29T05:12:14.346Z,26.35
2022-11-29T05:15:35.247Z,27.08
2022-11-29T05:18:16.118Z,25.58
2022-11-29T05:20:53.009Z,26.33
2022-11-29T05:23:59.781Z,28.40
2022-11-29T05:26:32.489Z,25.65
2022-11-29T05:28:59.001Z,26.67
2022-11-29T05:31:37.714Z,26.10
2022-11-29T05:34:34.699Z,26.05
2022-11-29T05:37:07.659Z,26.92
2022-11-29T05:39:48.319Z,24.33
2022-11-29T05:42:45.959Z,25.98
2022-11-29T05:45:27.640Z,26.52
2022-11-29T05:48:04.384Z,25.73
2022-11-29T05:50:38.068Z,25.52
2022-11-29T05:53:52.244Z,25.92
2022-11-29T05:56:34.322Z,25.77
2022-11-29T05:59:08.204Z,25.35
2022-11-29T06:01:52.624Z,26.35
2022-11-29T06:04:41.284Z,23.95
2022-11-29T06:07:17.845Z,24.58
2022-11-29T06:09:52.923Z,24.52
2022-11-29T06:12:24.648Z,23.50
2022-11-29T06:15:28.872Z,24.48
2022-11-29T06:18:33.858Z,23.42
2022-11-29T06:21:45.120Z,24.50
2022-11-29T06:24:25.905Z,23.65
2022-11-29T06:27:29.621Z,25.75
2022-11-29T06:30:14.356Z,24.30
2022-11-29T06:33:01.370Z,23.98
2022-11-29T06:36:05.980Z,22.88
2022-11-29T06:38:32.695Z,23.25
2022-11-29T06:41:02.113Z,22.00
2022-11-29T06:43:30.047Z,23.45
2022-11-29T06:46:00.961Z,24.05
2022-11-29T06:48:32.848Z,23.23
2022-11-29T06:51:07.349Z,21.92
2022-11-29T06:53:48.491Z,23.42
2022-11-29T06:56:30.331Z,22.88
2022-11-29T06:59:34.976Z,23.73
2022-11-29T07:02:14.778Z,25.92
2022-11-29T07:04:59.880Z,24.55
2022-11-29T07:07:26.717Z,23.70
2022-11-29T07:09:59.559Z,24.73
2022-11-29T07:12:26.885Z,23.58
2022-11-29T07:14:53.851Z,24.40
2022-11-29T07:17:20.345Z,21.92
2022-11-29T07:20:37.229Z,24.27
2022-11-29T07:23:18.733Z,22.20
2022-11-29T07:26:15.273Z,23.55
2022-11-29T07:28:51.137Z,21.40
2022-11-29T07:31:32.713Z,22.90
2022-11-29T07:34:07.434Z,23.33
2022-11-29T07:36:45.172Z,23.20
2022-11-29T07:39:48.165Z,24.20
2022-11-29T07:42:29.912Z,22.70
2022-11-29T07:44:59.464Z,24.05
2022-11-29T07:47:26.004Z,23.90
2022-11-29T07:49:52.731Z,22.65
2022-11-29T07:52:19.298Z,24.13
2022-11-29T07:54:46.322Z,23.58
2022-11-29T07:57:13.021Z,22.70
2022-11-29T07:59:39.564Z,24.08
2022-11-29T08:02:11.448Z,22.13
2022-11-29T08:04:44.820Z,22.65
2022-11-29T08:07:11.677Z,22.63
2022-11-29T08:09:38.310Z,24.08
2022-11-29T08:12:05.110Z,22.45
2022-11-29T08:14:33.306Z,22.73
2022-11-29T08:16:59.847Z,22.63
2022-11-29T08:19:26.497Z,21.45
2022-11-29T08:21:53.130Z,22.48
2022-11-29T08:24:19.776Z,21.52
2022-11-29T08:26:46.335Z,21.05
2022-11-29T08:29:12.927Z,21.83
2022-11-29T08:31:39.572Z,22.48
2022-11-29T08:34:07.323Z,20.70
2022-11-29T08:36:34.207Z,22.52
2022-11-29T08:39:08.925Z,22.00
2022-11-29T08:41:36.372Z,21.13
2022-11-29T08:44:05.168Z,20.42
2022-11-29T08:46:50.605Z,20.10
2022-11-29T08:49:17.221Z,20.42
2022-11-29T08:51:44.052Z,22.45
2022-11-29T08:54:10.679Z,21.23
2022-11-29T08:59:24.559Z,18.83
2022-11-29T09:01:51.291Z,20.88
2022-11-29T09:04:17.915Z,20.95
2022-11-29T09:06:45.405Z,21.90
2022-11-29T09:09:11.932Z,22.58
2022-11-29T09:11:38.441Z,21.27
2022-11-29T09:14:08.003Z,18.75
2022-11-29T09:16:37.045Z,20.52
2022-11-29T09:19:04.337Z,20.42
2022-11-29T09:21:32.775Z,19.38
2022-11-29T09:24:01.151Z,18.80
2022-11-29T09:26:31.034Z,20.08
2022-11-29T09:29:03.379Z,18.63
2022-11-29T09:31:31.132Z,20.05
2022-11-29T09:33:58.506Z,19.48
2022-11-29T09:36:28.844Z,18.85
2022-11-29T09:38:56.883Z,18.95
2022-11-29T09:42:00.654Z,18.33
2022-11-29T09:44:59.420Z,18.17
2022-11-29T09:47:46.254Z,18.55
2022-11-29T09:50:25.609Z,20.42
2022-11-29T09:53:07.728Z,19.02
2022-11-29T09:55:56.451Z,19.38
2022-11-29T09:58:27.362Z,18.70
2022-11-29T10:01:05.479Z,19.02
2022-11-29T10:03:39.204Z,19.15
2022-11-29T10:06:36.772Z,18.10
2022-11-29T10:09:17.118Z,19.05
2022-11-29T10:11:58.482Z,19.80
2022-11-29T10:14:31.292Z,19.67
2022-11-29T10:17:11.813Z,18.95
2022-11-29T10:19:43.101Z,18.25
2022-11-29T10:22:21.950Z,19.58
2022-11-29T10:24:51.901Z,18.63
2022-11-29T10:27:23.960Z,20.08
2022-11-29T10:29:54.182Z,20.38
2022-11-29T10:32:23.266Z,19.13
2022-11-29T10:34:50.524Z,20.35
2022-11-29T10:37:21.792Z,19.73
2022-11-29T10:39:53.282Z,19.98
2022-11-29T10:42:41.708Z,19.95
2022-11-29T10:45:40.474Z,19.05
2022-11-29T10:48:12.723Z,18.00
2022-11-29T10:50:44.045Z,19.30
2022-11-29T10:53:15.462Z,18.65
2022-11-29T10:56:07.192Z,18.95
2022-11-29T10:58:34.040Z,19.85
2022-11-29T11:01:06.715Z,19.15
2022-11-29T11:03:43.984Z,19.35
2022-11-29T11:06:22.726Z,18.80
2022-11-29T11:08:53.286Z,19.35
2022-11-29T11:11:34.126Z,19.90
2022-11-29T11:14:02.609Z,18.60
2022-11-29T11:16:32.922Z,19.40
2022-11-29T11:19:25.568Z,20.23
2022-11-29T11:21:52.066Z,20.23
2022-11-29T11:24:25.056Z,21.95
2022-11-29T11:26:51.787Z,19.95
2022-11-29T11:29:22.278Z,19.65
2022-11-29T11:31:59.736Z,20.48
2022-11-29T11:34:35.196Z,19.77
2022-11-29T11:37:24.833Z,21.38
2022-11-29T11:39:55.934Z,21.10
2022-11-29T11:42:38.509Z,19.58
2022-11-29T11:45:05.193Z,19.75
2022-11-29T11:47:35.768Z,20.13
2022-11-29T11:50:02.362Z,20.10
2022-11-29T11:52:28.792Z,21.05
2022-11-29T11:54:59.134Z,20.85
2022-11-29T11:57:26.761Z,19.65
2022-11-29T11:59:55.640Z,21.92
2022-11-29T12:02:37.144Z,21.85
2022-11-29T12:05:11.498Z,19.40
2022-11-29T12:08:07.335Z,21.60
2022-11-29T12:10:34.953Z,20.02
2022-11-29T12:13:02.770Z,20.67
2022-11-29T12:15:41.490Z,20.70
2022-11-29T12:18:26.231Z,19.80
2022-11-29T12:20:59.044Z,19.48
2022-11-29T12:23:37.348Z,20.60
2022-11-29T12:26:41.167Z,19.77
2022-11-29T12:29:03.660Z,19.80
2022-11-29T12:34:30.563Z,19.63
2022-11-29T12:37:31.200Z,20.17
2022-11-29T12:40:31.732Z,19.90
2022-11-29T12:43:09.831Z,19.13
2022-11-29T12:45:48.699Z,20.40
2022-11-29T12:48:21.441Z,18.95
2022-11-29T12:51:12.712Z,19.92
2022-11-29T12:54:13.219Z,19.80
2022-11-29T12:56:56.552Z,19.15
2022-11-29T12:59:51.373Z,20.05
2022-11-29T13:02:39.701Z,20.00
2022-11-29T13:05:09.621Z,19.92
2022-11-29T13:07:54.709Z,19.05
2022-11-29T13:10:39.816Z,19.35
2022-11-29T13:13:27.132Z,20.35
2022-11-29T13:16:13.596Z,18.67
2022-11-29T13:19:03.953Z,20.02
2022-11-29T13:21:40.303Z,19.30
2022-11-29T13:24:11.880Z,18.70
2022-11-29T13:26:41.955Z,19.73
2022-11-29T13:29:14.709Z,19.75
2022-11-29T13:31:41.840Z,20.67
2022-11-29T13:34:32.533Z,20.10
2022-11-29T13:37:10.791Z,20.05
2022-11-29T13:40:04.996Z,20.73
2022-11-29T13:42:46.760Z,21.10
2022-11-29T13:45:19.377Z,21.38
2022-11-29T13:47:51.468Z,21.92
2022-11-29T13:50:39.747Z,21.70
2022-11-29T13:53:13.398Z,22.25
2022-11-29T13:56:02.728Z,20.48
2022-11-29T13:58:29.163Z,20.88
2022-11-29T14:01:09.559Z,20.88
2022-11-29T14:03:45.047Z,20.85
2022-11-29T14:06:38.314Z,21.45
2022-11-29T14:09:20.913Z,20.70
2022-11-29T14:11:51.557Z,20.20
2022-11-29T14:14:47.876Z,19.85
2022-11-29T14:17:47.440Z,19.40
2022-11-29T14:20:22.899Z,21.90
2022-11-29T14:23:04.703Z,20.80
2022-11-29T14:25:51.083Z,21.17
2022-11-29T14:28:18.314Z,20.02
2022-11-29T14:30:44.742Z,20.98
2022-11-29T14:33:46.861Z,22.27
2022-11-29T14:36:20.782Z,22.65
2022-11-29T14:39:11.541Z,19.58
2022-11-29T14:42:10.530Z,20.75
2022-11-29T14:44:48.854Z,21.05
2022-11-29T14:47:18.473Z,21.38
2022-11-29T14:49:46.000Z,21.88
2022-11-29T14:52:15.509Z,22.50
2022-11-29T14:55:11.883Z,21.15
2022-11-29T15:00:27.269Z,22.02
2022-11-29T15:03:01.812Z,21.95
2022-11-29T15:05:34.475Z,24.02
2022-11-29T15:08:15.004Z,22.38
2022-11-29T15:10:47.973Z,22.88
2022-11-29T15:13:23.240Z,24.13
2022-11-29T15:16:14.088Z,23.45
2022-11-29T15:19:08.657Z,23.88
2022-11-29T15:21:52.217Z,24.02
2022-11-29T15:24:19.737Z,23.58
2022-11-29T15:27:00.924Z,23.67
2022-11-29T15:29:29.528Z,23.80
2022-11-29T15:31:59.638Z,24.15
2022-11-29T15:34:33.665Z,24.67
2022-11-29T15:37:01.040Z,23.75
2022-11-29T15:39:37.483Z,23.80
2022-11-29T15:42:10.556Z,26.17
2022-11-29T15:44:37.252Z,24.17
2022-11-29T15:47:25.125Z,24.58
2022-11-29T15:49:52.907Z,25.70
2022-11-29T15:52:28.256Z,24.55
2022-11-29T15:54:59.425Z,25.02
2022-11-29T15:57:49.520Z,25.25
2022-11-29T16:00:23.840Z,25.27
2022-11-29T16:02:58.391Z,26.35
2022-11-29T16:05:36.614Z,25.90
2022-11-29T16:08:21.436Z,24.85
2022-11-29T16:10:52.901Z,25.92
2022-11-29T16:13:28.201Z,25.23
2022-11-29T16:16:24.482Z,25.30
2022-11-29T16:18:53.816Z,25.48
2022-11-29T16:21:26.291Z,26.38
2022-11-29T16:23:53.688Z,25.23
2022-11-29T16:26:29.952Z,25.25
2022-11-29T16:28:59.701Z,26.80
2022-11-29T16:31:35.769Z,30.85
2022-11-29T16:34:08.516Z,41.08
2022-11-29T16:36:35.667Z,47.63
2022-11-29T16:39:08.014Z,38.45
2022-11-29T16:41:38.530Z,35.53
2022-11-29T16:44:07.294Z,32.25
2022-11-29T16:46:39.557Z,35.72
2022-11-29T16:49:35.470Z,34.40
2022-11-29T16:52:02.854Z,31.92
2022-11-29T16:54:33.903Z,29.38
2022-11-29T16:57:05.164Z,28.30
2022-11-29T16:59:40.630Z,32.33
2022-11-29T17:02:11.497Z,37.80
2022-11-29T17:04:37.976Z,32.20
2022-11-29T17:07:07.243Z,34.50
2022-11-29T17:09:34.695Z,40.03
2022-11-29T17:12:02.464Z,27.15
2022-11-29T17:14:29.663Z,25.02
2022-11-29T17:17:02.404Z,25.83
2022-11-29T17:19:29.850Z,26.63
2022-11-29T17:21:56.393Z,25.77
2022-11-29T17:24:24.291Z,25.92
2022-11-29T17:26:51.523Z,26.13
2022-11-29T17:29:18.675Z,25.63
2022-11-29T17:31:46.153Z,25.05
2022-11-29T17:34:13.310Z,26.25
2022-11-29T17:39:07.437Z,26.20
2022-11-29T17:41:34.684Z,25.40
2022-11-29T17:44:01.551Z,27.35
2022-11-29T17:46:34.244Z,25.85
2022-11-29T17:49:03.855Z,25.20
2022-11-29T17:54:17.358Z,25.90
2022-11-29T17:56:44.058Z,26.27
2022-11-29T17:59:10.524Z,27.83
2022-11-29T18:01:37.287Z,25.95
2022-11-29T18:04:05.784Z,27.83
2022-11-29T18:06:38.576Z,26.20
2022-11-29T18:09:06.979Z,26.50
2022-11-29T18:11:46.883Z,28.23
2022-11-29T18:14:16.350Z,28.13
2022-11-29T18:16:44.985Z,27.52
2022-11-29T18:19:16.687Z,28.58
2022-11-29T18:21:43.677Z,28.52
2022-11-29T18:26:38.536Z,27.25
2022-11-29T18:29:06.198Z,29.52
2022-11-29T18:31:35.550Z,28.50
2022-11-29T18:34:09.770Z,28.42
2022-11-29T18:36:43.058Z,29.48
2022-11-29T18:39:13.948Z,29.50
2022-11-29T18:41:42.583Z,29.40
2022-11-29T18:44:11.575Z,34.70
2022-11-29T18:46:39.573Z,30.48
2022-11-29T18:49:09.979Z,30.38
2022-11-29T18:51:37.573Z,30.58
2022-11-29T18:54:04.897Z,30.25
2022-11-29T18:56:34.294Z,31.55
2022-11-29T18:59:06.799Z,29.73
2022-11-29T19:01:35.353Z,29.40
2022-11-29T19:04:02.242Z,31.02
2022-11-29T19:06:38.586Z,30.60
2022-11-29T19:09:07.377Z,30.40
2022-11-29T19:11:34.497Z,31.92
2022-11-29T19:14:11.076Z,29.70
2022-11-29T19:21:34.222Z,29.05
2022-11-29T19:24:03.964Z,29.98
2022-11-29T19:26:32.422Z,30.25
2022-11-29T19:29:00.201Z,31.98
2022-11-29T19:31:29.495Z,29.85
2022-11-29T19:33:57.786Z,31.88
2022-11-29T19:36:29.747Z,32.15
2022-11-29T19:38:59.136Z,30.75
2022-11-29T19:41:31.302Z,32.67
2022-11-29T19:44:00.302Z,32.78
2022-11-29T19:46:32.629Z,30.58
2022-11-29T19:49:00.592Z,31.15
2022-11-29T19:51:28.600Z,31.25
2022-11-29T19:53:57.876Z,30.52
2022-11-29T19:56:24.589Z,32.95
2022-11-29T19:58:51.795Z,31.52
2022-11-29T20:01:22.360Z,34.65
2022-11-29T20:03:49.855Z,32.33
2022-11-29T20:06:17.403Z,32.45
2022-11-29T20:08:44.800Z,32.67
2022-11-29T20:11:12.938Z,33.67
2022-11-29T20:13:40.780Z,30.85
2022-11-29T20:16:13.548Z,31.20
2022-11-29T20:18:47.126Z,30.63
2022-11-29T20:21:20.153Z,31.27
2022-11-29T20:23:46.598Z,30.23
2022-11-29T20:26:19.108Z,29.77
2022-11-29T20:28:46.437Z,32.65
2022-11-29T20:31:18.430Z,30.40
2022-11-29T20:33:47.319Z,30.23
2022-11-29T20:36:13.734Z,31.55
2022-11-29T20:39:06.113Z,31.08
2022-11-29T20:41:55.737Z,30.45
2022-11-29T20:44:53.712Z,28.52
2022-11-29T20:47:32.515Z,28.88
2022-11-29T20:49:59.204Z,29.25
2022-11-29T20:52:31.604Z,29.23
2022-11-29T20:54:58.098Z,29.38
2022-11-29T20:57:24.506Z,27.58
2022-11-29T20:59:50.988Z,28.35
2022-11-29T21:02:17.585Z,27.77
2022-11-29T21:04:44.357Z,28.27
2022-11-29T21:09:37.453Z,27.02
2022-11-29T21:12:04.200Z,28.95
2022-11-29T21:14:30.947Z,26.42
2022-11-29T21:16:57.766Z,27.55
2022-11-29T21:19:25.825Z,27.55
2022-11-29T21:21:52.295Z,25.60
2022-11-29T21:24:48.157Z,26.90
2022-11-29T21:27:29.432Z,25.98
2022-11-29T21:29:56.474Z,26.83
2022-11-29T21:34:50.801Z,26.38
2022-11-29T21:37:20.598Z,26.23
2022-11-29T21:39:49.102Z,26.27
2022-11-29T21:42:15.756Z,25.38
2022-11-29T21:44:42.209Z,27.48
2022-11-29T21:47:11.282Z,26.30
2022-11-29T21:49:37.743Z,26.17
2022-11-29T21:52:05.196Z,26.95
2022-11-29T21:54:32.630Z,27.02
2022-11-29T21:56:59.476Z,26.80
2022-11-29T21:59:26.034Z,24.95
2022-11-29T22:01:52.960Z,25.60
2022-11-29T22:06:47.240Z,25.15
2022-11-29T22:09:14.052Z,25.25
2022-11-29T22:11:41.270Z,24.92
2022-11-29T22:14:13.983Z,24.27
2022-11-29T22:16:45.999Z,25.05
2022-11-29T22:19:21.954Z,25.77
2022-11-29T22:21:50.900Z,26.23
2022-11-29T22:24:19.655Z,24.70
2022-11-29T22:26:47.149Z,25.98
2022-11-29T22:29:14.216Z,25.33
2022-11-29T22:34:08.116Z,25.15
2022-11-29T22:36:35.774Z,25.83
2022-11-29T22:39:02.548Z,25.25
2022-11-29T22:41:32.884Z,24.38
2022-11-29T22:43:59.442Z,26.48
2022-11-29T22:46:28.104Z,25.45
2022-11-29T22:48:56.948Z,25.85
2022-11-29T22:51:26.723Z,25.00
2022-11-29T22:53:57.632Z,26.73
2022-11-29T22:56:27.319Z,25.67
2022-11-29T22:58:57.031Z,25.20
2022-11-29T23:01:26.264Z,25.83
2022-11-29T23:03:54.780Z,24.85
2022-11-29T23:06:23.858Z,25.52
2022-11-29T23:08:52.012Z,25.13
2022-11-29T23:11:23.885Z,27.05
2022-11-29T23:13:50.563Z,26.75
2022-11-29T23:16:20.157Z,25.02
2022-11-29T23:18:46.935Z,25.15
2022-11-29T23:21:16.437Z,23.70
2022-11-29T23:23:43.661Z,24.65
2022-11-29T23:26:21.580Z,26.63
2022-11-29T23:28:48.564Z,24.42
2022-11-29T23:33:42.266Z,23.55
2022-11-29T23:36:10.791Z,24.58
2022-11-29T23:38:37.383Z,26.15
2022-11-29T23:41:05.145Z,26.60
2022-11-29T23:43:33.641Z,24.60
2022-11-29T23:46:04.976Z,26.55
2022-11-29T23:48:31.458Z,24.90
2022-11-29T23:50:57.866Z,25.98
2022-11-29T23:53:24.316Z,26.35
2022-11-29T23:56:02.761Z,26.65
2022-11-29T23:58:30.407Z,23.63
